»·PEaware :: ASA613 KSEA-KBOI

ASA613 :: KSEA-KBOI

FLIGHT INFORMATION

Flight Status: Arrived
Operator:
Alaska Airlines
More flights by this operator :: More flights under this callsign
Pilot: Sean T. (30125)
Aircraft: BOEING 737-700
(B737)
More flights by this aircraft type
Origin: KSEA Seattle-Tacoma Intl
United States
Destination: KBOI Boise Air Terminal/Gowen
United States
More flights between these airports :: More routes between these airports
Route: SUMMA2 SUMMA J54 BKE DEVLE KYAAN3
File this flight plan on PilotEdge
Remarks:
Altitude:
(Current/Filed)
35,000ft
Speed:
(Current/Filed)
290kts
Departed: 17-Sep-20 11:43 AM
Arrived: 17-Sep-20 01:13 PM
Distance/Time
Traveled:
346nm/1:30
Distance/Time
To Go:
Arrived

Flight Plot

Page will automatically refresh every two minutes.

Flight plan parsing failed; only flown route is shown


Map Options




Map Legend


Flown Route
Filed Route
Departure Airport
Arrival Airport
Navaid (VOR, NDB)
Fix

Horizontal Profiles

Position Reports

Time Latitude Longitude Heading Altitude Ground
Speed
17-Sep-20 11:06 47.449294 -122.302573 197 404ft 0kts
17-Sep-20 11:07 47.449294 -122.302573 197 404ft 0kts
17-Sep-20 11:08 47.449294 -122.302573 197 404ft 0kts
17-Sep-20 11:09 47.449294 -122.302573 197 404ft 0kts
17-Sep-20 11:10 47.449294 -122.302573 197 404ft 0kts
17-Sep-20 11:10 47.449294 -122.302573 197 404ft 0kts
17-Sep-20 11:12 47.449294 -122.302573 197 404ft 0kts
17-Sep-20 11:13 47.449294 -122.302573 197 404ft 0kts
17-Sep-20 11:14 47.449294 -122.302573 197 404ft 0kts
17-Sep-20 11:14 47.449294 -122.302573 197 404ft 0kts
17-Sep-20 11:15 47.449294 -122.302573 197 404ft 0kts
17-Sep-20 11:17 47.449537 -122.302189 274 405ft 1kts
17-Sep-20 11:17 47.449499 -122.301598 277 405ft 1kts
17-Sep-20 11:18 47.449496 -122.301600 267 405ft 0kts
17-Sep-20 11:20 47.449496 -122.301600 267 405ft 0kts
17-Sep-20 11:20 47.449500 -122.301639 279 405ft 0kts
17-Sep-20 11:21 47.449504 -122.301664 281 405ft 2kts
17-Sep-20 11:22 47.449529 -122.301928 285 405ft 3kts
17-Sep-20 11:23 47.449529 -122.301928 285 405ft 3kts
17-Sep-20 11:24 47.449529 -122.301928 285 405ft 3kts
17-Sep-20 11:25 47.449529 -122.301928 285 405ft 3kts
17-Sep-20 11:26 47.449529 -122.301928 285 405ft 3kts
17-Sep-20 11:32 47.449294 -122.302573 197 404ft 0kts
17-Sep-20 11:33 47.449294 -122.302573 197 404ft 0kts
17-Sep-20 11:34 47.449294 -122.302573 197 404ft 0kts
17-Sep-20 11:35 47.449533 -122.302382 260 405ft 1kts
17-Sep-20 11:36 47.449831 -122.302612 313 407ft 8kts
17-Sep-20 11:37 47.450064 -122.303593 275 409ft 5kts
17-Sep-20 11:38 47.450315 -122.306185 344 411ft 5kts
17-Sep-20 11:39 47.452943 -122.306241 359 423ft 13kts
17-Sep-20 11:40 47.458612 -122.306191 0 440ft 21kts
17-Sep-20 11:41 47.463377 -122.306181 344 420ft 8kts
17-Sep-20 11:42 47.460768 -122.307787 177 428ft 82kts
17-Sep-20 11:43 47.418745 -122.309058 193 2672ft 199kts
17-Sep-20 11:44 47.379917 -122.315392 180 5431ft 214kts
17-Sep-20 11:45 47.338409 -122.316990 175 8004ft 246kts
17-Sep-20 11:46 47.292786 -122.313271 178 10583ft 243kts
17-Sep-20 11:47 47.246054 -122.313185 162 13102ft 232kts
17-Sep-20 11:48 47.201617 -122.281770 154 14692ft 258kts
17-Sep-20 11:49 47.147778 -122.249687 162 16677ft 269kts
17-Sep-20 11:50 47.085042 -122.219055 162 19099ft 281kts
17-Sep-20 11:51 47.024640 -122.189450 163 21346ft 286kts
17-Sep-20 11:52 46.975589 -122.165371 164 23151ft 289kts
17-Sep-20 11:53 46.914666 -122.135404 164 25092ft 298kts
17-Sep-20 11:54 46.854180 -122.105564 165 26756ft 304kts
17-Sep-20 11:55 46.791842 -122.074768 165 28311ft 310kts
17-Sep-20 11:56 46.727771 -122.043004 165 29831ft 313kts
17-Sep-20 11:57 46.665853 -122.012241 165 31326ft 311kts
17-Sep-20 11:58 46.606778 -121.954166 138 32592ft 334kts
17-Sep-20 11:59 46.565854 -121.857028 128 33840ft 346kts
17-Sep-20 12:00 46.528149 -121.761312 129 34989ft 345kts
17-Sep-20 12:01 46.491575 -121.669585 128 35070ft 374kts
17-Sep-20 12:02 46.450426 -121.566359 127 35072ft 405kts
17-Sep-20 12:03 46.408719 -121.462107 127 35075ft 433kts
17-Sep-20 12:04 46.364518 -121.352024 126 35077ft 460kts
17-Sep-20 12:05 46.314731 -121.228482 127 35072ft 467kts
17-Sep-20 12:06 46.262569 -121.099741 127 35071ft 465kts
17-Sep-20 12:07 46.211037 -120.973216 126 35077ft 470kts
17-Sep-20 12:08 46.158576 -120.844968 126 35077ft 479kts
17-Sep-20 12:09 46.105789 -120.716317 126 35078ft 459kts
17-Sep-20 12:10 46.051324 -120.584633 126 35079ft 476kts
17-Sep-20 12:11 45.996412 -120.452153 126 35079ft 470kts
17-Sep-20 12:12 45.944884 -120.328554 126 35076ft 473kts
17-Sep-20 12:13 45.892927 -120.204424 126 35080ft 471kts
17-Sep-20 12:14 45.840413 -120.079548 126 35080ft 472kts
17-Sep-20 12:15 45.787044 -119.953187 126 35076ft 471kts
17-Sep-20 12:16 45.730654 -119.820301 126 35076ft 471kts
17-Sep-20 12:17 45.675014 -119.689790 126 35076ft 471kts
17-Sep-20 12:18 45.616893 -119.554105 126 35076ft 471kts
17-Sep-20 12:19 45.555744 -119.412055 126 35076ft 471kts
17-Sep-20 12:20 45.495835 -119.273586 127 35071ft 470kts
17-Sep-20 12:21 45.438027 -119.140619 127 35076ft 471kts
17-Sep-20 12:22 45.380654 -119.009253 127 35080ft 471kts
17-Sep-20 12:23 45.320094 -118.871289 126 35078ft 479kts
17-Sep-20 12:24 45.263859 -118.743718 126 35068ft 482kts
17-Sep-20 12:25 45.206419 -118.613927 126 33156ft 467kts
17-Sep-20 12:26 45.151821 -118.491264 126 31536ft 451kts
17-Sep-20 12:27 45.096544 -118.367677 126 29862ft 440kts
17-Sep-20 12:28 45.042953 -118.248380 127 28273ft 417kts
17-Sep-20 12:29 44.989311 -118.129685 127 26829ft 400kts
17-Sep-20 12:30 44.939827 -118.020443 127 25475ft 393kts
17-Sep-20 12:31 44.893283 -117.918087 127 24175ft 384kts
17-Sep-20 12:32 44.840433 -117.822404 142 23149ft 370kts
17-Sep-20 12:33 44.774191 -117.748839 149 22086ft 361kts
17-Sep-20 12:34 44.705997 -117.686967 150 21032ft 354kts
17-Sep-20 12:35 44.640048 -117.627979 150 19996ft 348kts
17-Sep-20 12:36 44.574451 -117.569429 150 18945ft 342kts
17-Sep-20 12:37 44.510369 -117.512385 150 17900ft 337kts
17-Sep-20 12:39 44.484247 -117.489176 149 17468ft 334kts
17-Sep-20 12:40 44.342497 -117.363660 149 16026ft 312kts
17-Sep-20 12:41 44.270474 -117.300244 150 16025ft 326kts
17-Sep-20 12:42 44.197612 -117.230368 140 15700ft 334kts
17-Sep-20 12:43 44.134365 -117.147219 139 13832ft 316kts
17-Sep-20 12:44 44.071710 -117.065281 139 11925ft 307kts
17-Sep-20 12:45 44.013065 -116.988787 139 10594ft 288kts
17-Sep-20 12:46 43.956007 -116.905053 127 10036ft 291kts
17-Sep-20 12:47 43.910965 -116.811849 126 9084ft 291kts
17-Sep-20 12:48 43.865700 -116.718710 125 8388ft 291kts
17-Sep-20 12:49 43.820479 -116.626265 123 8006ft 267kts
17-Sep-20 12:51 43.783659 -116.552004 123 8006ft 232kts
17-Sep-20 12:52 43.750054 -116.484344 123 8004ft 232kts
17-Sep-20 12:53 43.712912 -116.409756 123 7999ft 233kts
17-Sep-20 12:54 43.676243 -116.331958 118 8004ft 247kts
17-Sep-20 12:55 43.646903 -116.246782 113 8007ft 247kts
17-Sep-20 12:56 43.632081 -116.153083 103 8017ft 247kts
17-Sep-20 12:57 43.619634 -116.061932 103 8018ft 236kts
17-Sep-20 12:58 43.608234 -115.977468 103 8019ft 230kts
17-Sep-20 12:59 43.596927 -115.893398 103 8018ft 230kts
17-Sep-20 13:00 43.586078 -115.811078 103 8018ft 227kts
17-Sep-20 13:01 43.567601 -115.718936 112 8018ft 221kts
17-Sep-20 13:02 43.520605 -115.674527 197 8017ft 202kts
17-Sep-20 13:03 43.465162 -115.709989 203 8018ft 198kts
17-Sep-20 13:03 43.421702 -115.742781 231 8020ft 190kts
17-Sep-20 13:05 43.430060 -115.836705 297 7402ft 200kts
17-Sep-20 13:06 43.455727 -115.903993 292 7020ft 184kts
17-Sep-20 13:06 43.473724 -115.955462 292 7009ft 181kts
17-Sep-20 13:07 43.493717 -116.013413 291 6278ft 161kts
17-Sep-20 13:09 43.516382 -116.078822 292 5134ft 150kts
17-Sep-20 13:09 43.531759 -116.123829 293 4294ft 143kts
17-Sep-20 13:10 43.549738 -116.176809 294 3378ft 140kts
17-Sep-20 13:11 43.565520 -116.223189 295 2849ft 54kts
17-Sep-20 13:13 43.568483 -116.228459 92 2842ft 9kts
17-Sep-20 13:13 43.567631 -116.225842 118 2847ft 9kts

Navigation Log

Ident Type
Flight plan parsing failed, navigation log unavailable